sensor_id;sensor_type;location;lat;lon;timestamp;P1;durP1;ratioP1;P2;durP2;ratioP2
75167;SDS011;63748;48.088;11.476;2023-05-09T00:01:41;14.32;;;7.90;;
75167;SDS011;63748;48.088;11.476;2023-05-09T00:04:09;14.57;;;7.82;;
75167;SDS011;63748;48.088;11.476;2023-05-09T00:06:35;11.45;;;7.00;;
75167;SDS011;63748;48.088;11.476;2023-05-09T00:09:01;11.40;;;6.32;;
75167;SDS011;63748;48.088;11.476;2023-05-09T00:11:29;13.73;;;8.10;;
75167;SDS011;63748;48.088;11.476;2023-05-09T00:13:55;12.25;;;8.10;;
75167;SDS011;63748;48.088;11.476;2023-05-09T00:16:21;11.85;;;6.70;;
75167;SDS011;63748;48.088;11.476;2023-05-09T00:18:48;11.77;;;7.60;;
75167;SDS011;63748;48.088;11.476;2023-05-09T00:21:14;13.40;;;7.75;;
75167;SDS011;63748;48.088;11.476;2023-05-09T00:23:41;12.07;;;7.55;;
75167;SDS011;63748;48.088;11.476;2023-05-09T00:26:08;13.38;;;7.15;;
75167;SDS011;63748;48.088;11.476;2023-05-09T00:28:34;15.50;;;7.47;;
75167;SDS011;63748;48.088;11.476;2023-05-09T00:31:01;12.80;;;8.15;;
75167;SDS011;63748;48.088;11.476;2023-05-09T00:33:28;11.05;;;6.72;;
75167;SDS011;63748;48.088;11.476;2023-05-09T00:35:54;14.45;;;8.20;;
75167;SDS011;63748;48.088;11.476;2023-05-09T00:38:23;15.60;;;8.52;;
75167;SDS011;63748;48.088;11.476;2023-05-09T00:40:49;14.38;;;8.32;;
75167;SDS011;63748;48.088;11.476;2023-05-09T00:43:15;15.48;;;8.13;;
75167;SDS011;63748;48.088;11.476;2023-05-09T00:45:44;14.40;;;8.63;;
75167;SDS011;63748;48.088;11.476;2023-05-09T00:48:10;15.57;;;7.45;;
75167;SDS011;63748;48.088;11.476;2023-05-09T00:50:37;13.80;;;7.53;;
75167;SDS011;63748;48.088;11.476;2023-05-09T00:53:03;13.65;;;7.53;;
75167;SDS011;63748;48.088;11.476;2023-05-09T00:55:29;17.55;;;8.50;;
75167;SDS011;63748;48.088;11.476;2023-05-09T00:57:55;14.10;;;8.10;;
75167;SDS011;63748;48.088;11.476;2023-05-09T01:00:21;15.45;;;8.68;;
75167;SDS011;63748;48.088;11.476;2023-05-09T01:02:48;13.55;;;7.85;;
75167;SDS011;63748;48.088;11.476;2023-05-09T01:05:16;14.20;;;7.78;;
75167;SDS011;63748;48.088;11.476;2023-05-09T01:17:58;15.10;;;8.77;;
75167;SDS011;63748;48.088;11.476;2023-05-09T01:25:53;12.27;;;7.57;;
75167;SDS011;63748;48.088;11.476;2023-05-09T01:28:38;13.75;;;7.68;;
75167;SDS011;63748;48.088;11.476;2023-05-09T01:31:05;12.13;;;7.10;;
75167;SDS011;63748;48.088;11.476;2023-05-09T01:33:32;12.05;;;6.97;;
75167;SDS011;63748;48.088;11.476;2023-05-09T01:36:03;11.52;;;6.88;;
75167;SDS011;63748;48.088;11.476;2023-05-09T01:38:29;13.10;;;7.55;;
75167;SDS011;63748;48.088;11.476;2023-05-09T01:40:56;12.48;;;7.32;;
75167;SDS011;63748;48.088;11.476;2023-05-09T01:43:24;11.10;;;7.03;;
75167;SDS011;63748;48.088;11.476;2023-05-09T01:45:52;11.23;;;7.00;;
75167;SDS011;63748;48.088;11.476;2023-05-09T01:48:18;10.80;;;6.75;;
75167;SDS011;63748;48.088;11.476;2023-05-09T01:50:45;17.55;;;7.20;;
75167;SDS011;63748;48.088;11.476;2023-05-09T01:53:12;12.52;;;6.63;;
75167;SDS011;63748;48.088;11.476;2023-05-09T01:55:38;13.75;;;5.85;;
75167;SDS011;63748;48.088;11.476;2023-05-09T01:58:05;10.68;;;7.07;;
75167;SDS011;63748;48.088;11.476;2023-05-09T02:00:33;11.88;;;6.47;;
75167;SDS011;63748;48.088;11.476;2023-05-09T02:03:00;12.68;;;7.05;;
75167;SDS011;63748;48.088;11.476;2023-05-09T02:05:27;11.55;;;7.72;;
75167;SDS011;63748;48.088;11.476;2023-05-09T02:07:54;11.93;;;7.53;;
75167;SDS011;63748;48.088;11.476;2023-05-09T02:10:22;9.48;;;6.05;;
75167;SDS011;63748;48.088;11.476;2023-05-09T02:12:50;14.20;;;6.88;;
75167;SDS011;63748;48.088;11.476;2023-05-09T02:15:16;12.65;;;6.75;;
75167;SDS011;63748;48.088;11.476;2023-05-09T02:17:42;11.90;;;6.80;;
75167;SDS011;63748;48.088;11.476;2023-05-09T02:20:08;12.02;;;7.35;;
75167;SDS011;63748;48.088;11.476;2023-05-09T02:22:35;13.95;;;7.82;;
75167;SDS011;63748;48.088;11.476;2023-05-09T02:25:02;15.25;;;8.93;;
75167;SDS011;63748;48.088;11.476;2023-05-09T02:27:32;13.75;;;6.68;;
75167;SDS011;63748;48.088;11.476;2023-05-09T02:30:00;13.70;;;7.80;;
75167;SDS011;63748;48.088;11.476;2023-05-09T02:32:29;15.43;;;6.82;;
75167;SDS011;63748;48.088;11.476;2023-05-09T02:34:56;11.95;;;6.72;;
75167;SDS011;63748;48.088;11.476;2023-05-09T02:37:22;11.60;;;6.88;;
75167;SDS011;63748;48.088;11.476;2023-05-09T02:39:49;10.27;;;6.10;;
75167;SDS011;63748;48.088;11.476;2023-05-09T02:42:17;12.30;;;6.93;;
75167;SDS011;63748;48.088;11.476;2023-05-09T02:44:44;12.60;;;7.38;;
75167;SDS011;63748;48.088;11.476;2023-05-09T02:47:10;10.93;;;6.97;;
75167;SDS011;63748;48.088;11.476;2023-05-09T02:49:36;11.75;;;6.68;;
75167;SDS011;63748;48.088;11.476;2023-05-09T02:52:02;9.23;;;6.35;;
75167;SDS011;63748;48.088;11.476;2023-05-09T02:54:28;10.80;;;6.35;;
75167;SDS011;63748;48.088;11.476;2023-05-09T02:56:54;10.82;;;5.70;;
75167;SDS011;63748;48.088;11.476;2023-05-09T02:59:20;10.63;;;6.00;;
75167;SDS011;63748;48.088;11.476;2023-05-09T03:01:46;9.95;;;6.60;;
75167;SDS011;63748;48.088;11.476;2023-05-09T03:04:13;11.35;;;6.30;;
75167;SDS011;63748;48.088;11.476;2023-05-09T03:06:39;11.25;;;6.22;;
75167;SDS011;63748;48.088;11.476;2023-05-09T03:09:05;12.40;;;6.43;;
75167;SDS011;63748;48.088;11.476;2023-05-09T03:11:31;10.93;;;6.22;;
75167;SDS011;63748;48.088;11.476;2023-05-09T03:13:57;13.35;;;7.13;;
75167;SDS011;63748;48.088;11.476;2023-05-09T03:16:23;10.57;;;5.95;;
75167;SDS011;63748;48.088;11.476;2023-05-09T03:18:49;10.80;;;5.78;;
75167;SDS011;63748;48.088;11.476;2023-05-09T03:21:15;10.05;;;5.53;;
75167;SDS011;63748;48.088;11.476;2023-05-09T03:23:42;11.27;;;6.18;;
75167;SDS011;63748;48.088;11.476;2023-05-09T03:26:08;11.40;;;7.07;;
75167;SDS011;63748;48.088;11.476;2023-05-09T03:28:34;10.77;;;6.40;;
75167;SDS011;63748;48.088;11.476;2023-05-09T03:31:00;10.60;;;7.05;;
75167;SDS011;63748;48.088;11.476;2023-05-09T03:33:26;12.13;;;6.40;;
75167;SDS011;63748;48.088;11.476;2023-05-09T03:35:52;9.73;;;7.07;;
75167;SDS011;63748;48.088;11.476;2023-05-09T03:38:18;9.63;;;5.88;;
75167;SDS011;63748;48.088;11.476;2023-05-09T03:40:44;9.95;;;5.75;;
75167;SDS011;63748;48.088;11.476;2023-05-09T03:43:10;10.10;;;6.22;;
75167;SDS011;63748;48.088;11.476;2023-05-09T03:45:36;8.93;;;6.15;;
75167;SDS011;63748;48.088;11.476;2023-05-09T03:48:02;9.90;;;6.20;;
75167;SDS011;63748;48.088;11.476;2023-05-09T03:50:32;11.05;;;6.00;;
75167;SDS011;63748;48.088;11.476;2023-05-09T03:52:58;10.82;;;6.82;;
75167;SDS011;63748;48.088;11.476;2023-05-09T03:55:24;12.20;;;6.72;;
75167;SDS011;63748;48.088;11.476;2023-05-09T03:57:50;10.70;;;6.43;;
75167;SDS011;63748;48.088;11.476;2023-05-09T04:00:16;12.00;;;6.97;;
75167;SDS011;63748;48.088;11.476;2023-05-09T04:02:42;9.68;;;6.47;;
75167;SDS011;63748;48.088;11.476;2023-05-09T04:05:08;10.25;;;6.55;;
75167;SDS011;63748;48.088;11.476;2023-05-09T04:07:34;10.98;;;7.13;;
75167;SDS011;63748;48.088;11.476;2023-05-09T04:10:01;12.57;;;6.28;;
75167;SDS011;63748;48.088;11.476;2023-05-09T04:12:27;11.13;;;6.38;;
75167;SDS011;63748;48.088;11.476;2023-05-09T04:14:53;10.80;;;5.95;;
75167;SDS011;63748;48.088;11.476;2023-05-09T04:17:19;12.10;;;6.72;;
75167;SDS011;63748;48.088;11.476;2023-05-09T04:19:45;11.05;;;6.88;;
75167;SDS011;63748;48.088;11.476;2023-05-09T04:22:11;12.00;;;6.85;;
75167;SDS011;63748;48.088;11.476;2023-05-09T04:24:37;10.70;;;6.40;;
75167;SDS011;63748;48.088;11.476;2023-05-09T04:27:03;11.80;;;7.25;;
75167;SDS011;63748;48.088;11.476;2023-05-09T04:29:29;11.38;;;6.97;;
75167;SDS011;63748;48.088;11.476;2023-05-09T04:31:56;11.48;;;6.53;;
75167;SDS011;63748;48.088;11.476;2023-05-09T04:34:23;10.50;;;6.75;;
75167;SDS011;63748;48.088;11.476;2023-05-09T04:36:50;11.10;;;6.70;;
75167;SDS011;63748;48.088;11.476;2023-05-09T04:39:17;8.95;;;5.93;;
75167;SDS011;63748;48.088;11.476;2023-05-09T04:41:43;11.23;;;6.82;;
75167;SDS011;63748;48.088;11.476;2023-05-09T04:44:11;12.20;;;6.22;;
75167;SDS011;63748;48.088;11.476;2023-05-09T04:46:37;12.43;;;7.07;;
75167;SDS011;63748;48.088;11.476;2023-05-09T04:49:03;16.10;;;6.65;;
75167;SDS011;63748;48.088;11.476;2023-05-09T04:51:29;13.05;;;6.53;;
75167;SDS011;63748;48.088;11.476;2023-05-09T04:53:56;13.55;;;7.65;;
75167;SDS011;63748;48.088;11.476;2023-05-09T04:56:22;11.10;;;7.30;;
75167;SDS011;63748;48.088;11.476;2023-05-09T04:58:48;13.60;;;6.97;;
75167;SDS011;63748;48.088;11.476;2023-05-09T05:01:14;13.60;;;7.57;;
75167;SDS011;63748;48.088;11.476;2023-05-09T05:03:40;14.05;;;8.23;;
75167;SDS011;63748;48.088;11.476;2023-05-09T05:06:06;13.98;;;8.38;;
75167;SDS011;63748;48.088;11.476;2023-05-09T05:08:32;13.60;;;7.35;;
75167;SDS011;63748;48.088;11.476;2023-05-09T05:10:58;13.57;;;7.70;;
75167;SDS011;63748;48.088;11.476;2023-05-09T05:13:24;11.93;;;6.55;;
75167;SDS011;63748;48.088;11.476;2023-05-09T05:15:51;12.52;;;8.05;;
75167;SDS011;63748;48.088;11.476;2023-05-09T05:18:17;14.52;;;7.95;;
75167;SDS011;63748;48.088;11.476;2023-05-09T05:20:43;11.98;;;6.85;;
75167;SDS011;63748;48.088;11.476;2023-05-09T05:23:09;12.85;;;7.70;;
75167;SDS011;63748;48.088;11.476;2023-05-09T05:25:35;14.15;;;7.82;;
75167;SDS011;63748;48.088;11.476;2023-05-09T05:28:01;13.23;;;7.68;;
75167;SDS011;63748;48.088;11.476;2023-05-09T05:30:27;12.73;;;7.85;;
75167;SDS011;63748;48.088;11.476;2023-05-09T05:32:53;11.13;;;7.45;;
75167;SDS011;63748;48.088;11.476;2023-05-09T05:35:19;11.70;;;6.85;;
75167;SDS011;63748;48.088;11.476;2023-05-09T05:37:47;12.35;;;7.65;;
75167;SDS011;63748;48.088;11.476;2023-05-09T05:40:13;11.82;;;7.38;;
75167;SDS011;63748;48.088;11.476;2023-05-09T05:42:39;13.63;;;6.95;;
75167;SDS011;63748;48.088;11.476;2023-05-09T05:45:05;12.15;;;7.25;;
75167;SDS011;63748;48.088;11.476;2023-05-09T05:47:32;14.10;;;8.20;;
75167;SDS011;63748;48.088;11.476;2023-05-09T05:50:02;14.60;;;6.80;;
75167;SDS011;63748;48.088;11.476;2023-05-09T05:52:30;13.38;;;8.18;;
75167;SDS011;63748;48.088;11.476;2023-05-09T05:54:56;14.32;;;7.55;;
75167;SDS011;63748;48.088;11.476;2023-05-09T05:57:22;16.75;;;7.72;;
75167;SDS011;63748;48.088;11.476;2023-05-09T05:59:49;11.00;;;7.00;;
75167;SDS011;63748;48.088;11.476;2023-05-09T06:02:16;11.98;;;7.57;;
75167;SDS011;63748;48.088;11.476;2023-05-09T06:04:42;10.20;;;6.53;;
75167;SDS011;63748;48.088;11.476;2023-05-09T06:07:09;11.93;;;7.45;;
75167;SDS011;63748;48.088;11.476;2023-05-09T06:09:35;11.30;;;6.60;;
75167;SDS011;63748;48.088;11.476;2023-05-09T06:12:02;12.55;;;6.85;;
75167;SDS011;63748;48.088;11.476;2023-05-09T06:14:28;10.00;;;6.28;;
75167;SDS011;63748;48.088;11.476;2023-05-09T06:16:54;12.98;;;7.35;;
75167;SDS011;63748;48.088;11.476;2023-05-09T06:19:20;12.43;;;7.13;;
75167;SDS011;63748;48.088;11.476;2023-05-09T06:21:46;12.98;;;6.68;;
75167;SDS011;63748;48.088;11.476;2023-05-09T06:24:12;9.77;;;7.00;;
75167;SDS011;63748;48.088;11.476;2023-05-09T06:26:38;12.85;;;7.32;;
75167;SDS011;63748;48.088;11.476;2023-05-09T06:29:04;10.80;;;7.07;;
75167;SDS011;63748;48.088;11.476;2023-05-09T06:31:31;11.02;;;7.28;;
75167;SDS011;63748;48.088;11.476;2023-05-09T06:34:02;12.50;;;6.82;;
75167;SDS011;63748;48.088;11.476;2023-05-09T06:36:28;11.70;;;7.18;;
75167;SDS011;63748;48.088;11.476;2023-05-09T06:38:54;9.73;;;6.03;;
75167;SDS011;63748;48.088;11.476;2023-05-09T06:41:20;11.95;;;7.53;;
75167;SDS011;63748;48.088;11.476;2023-05-09T06:43:46;11.35;;;7.00;;
75167;SDS011;63748;48.088;11.476;2023-05-09T06:46:12;12.52;;;7.95;;
75167;SDS011;63748;48.088;11.476;2023-05-09T06:48:38;10.23;;;7.05;;
75167;SDS011;63748;48.088;11.476;2023-05-09T06:51:04;11.02;;;6.47;;
75167;SDS011;63748;48.088;11.476;2023-05-09T06:53:31;10.88;;;7.60;;
75167;SDS011;63748;48.088;11.476;2023-05-09T06:55:57;10.80;;;6.97;;
75167;SDS011;63748;48.088;11.476;2023-05-09T06:58:23;9.82;;;6.57;;
75167;SDS011;63748;48.088;11.476;2023-05-09T07:00:49;10.77;;;6.68;;
75167;SDS011;63748;48.088;11.476;2023-05-09T07:03:15;11.85;;;6.70;;
75167;SDS011;63748;48.088;11.476;2023-05-09T07:05:41;10.48;;;6.88;;
75167;SDS011;63748;48.088;11.476;2023-05-09T07:08:07;10.02;;;6.63;;
75167;SDS011;63748;48.088;11.476;2023-05-09T07:10:33;9.23;;;6.60;;
75167;SDS011;63748;48.088;11.476;2023-05-09T07:13:00;9.32;;;6.90;;
75167;SDS011;63748;48.088;11.476;2023-05-09T07:15:26;10.65;;;6.63;;
75167;SDS011;63748;48.088;11.476;2023-05-09T07:17:52;10.52;;;7.03;;
75167;SDS011;63748;48.088;11.476;2023-05-09T07:20:18;14.43;;;7.00;;
75167;SDS011;63748;48.088;11.476;2023-05-09T07:22:44;8.80;;;6.28;;
75167;SDS011;63748;48.088;11.476;2023-05-09T07:25:10;9.73;;;7.18;;
75167;SDS011;63748;48.088;11.476;2023-05-09T07:27:36;11.02;;;6.95;;
75167;SDS011;63748;48.088;11.476;2023-05-09T07:30:03;9.38;;;6.57;;
75167;SDS011;63748;48.088;11.476;2023-05-09T07:32:29;9.18;;;6.13;;
75167;SDS011;63748;48.088;11.476;2023-05-09T07:34:55;11.60;;;6.88;;
75167;SDS011;63748;48.088;11.476;2023-05-09T07:37:21;8.32;;;5.95;;
75167;SDS011;63748;48.088;11.476;2023-05-09T07:39:47;9.30;;;5.93;;
75167;SDS011;63748;48.088;11.476;2023-05-09T07:42:13;9.40;;;6.55;;
75167;SDS011;63748;48.088;11.476;2023-05-09T07:44:40;10.30;;;5.65;;
75167;SDS011;63748;48.088;11.476;2023-05-09T07:47:06;8.55;;;5.68;;
75167;SDS011;63748;48.088;11.476;2023-05-09T07:49:33;8.73;;;5.65;;
75167;SDS011;63748;48.088;11.476;2023-05-09T07:51:59;9.07;;;5.32;;
75167;SDS011;63748;48.088;11.476;2023-05-09T07:54:25;9.35;;;6.25;;
75167;SDS011;63748;48.088;11.476;2023-05-09T07:56:52;8.13;;;5.60;;
75167;SDS011;63748;48.088;11.476;2023-05-09T07:59:18;7.40;;;5.55;;
75167;SDS011;63748;48.088;11.476;2023-05-09T08:01:44;10.63;;;5.82;;
75167;SDS011;63748;48.088;11.476;2023-05-09T08:04:11;10.77;;;6.28;;
75167;SDS011;63748;48.088;11.476;2023-05-09T08:06:37;8.55;;;5.78;;
75167;SDS011;63748;48.088;11.476;2023-05-09T08:09:03;12.48;;;6.55;;
75167;SDS011;63748;48.088;11.476;2023-05-09T08:11:31;8.23;;;5.55;;
75167;SDS011;63748;48.088;11.476;2023-05-09T08:13:58;8.30;;;5.50;;
75167;SDS011;63748;48.088;11.476;2023-05-09T08:16:24;6.68;;;4.78;;
75167;SDS011;63748;48.088;11.476;2023-05-09T08:18:50;7.93;;;4.88;;
75167;SDS011;63748;48.088;11.476;2023-05-09T08:21:17;8.65;;;5.05;;
75167;SDS011;63748;48.088;11.476;2023-05-09T08:23:43;8.30;;;5.28;;
75167;SDS011;63748;48.088;11.476;2023-05-09T08:26:09;9.85;;;4.90;;
75167;SDS011;63748;48.088;11.476;2023-05-09T08:28:35;8.15;;;5.85;;
75167;SDS011;63748;48.088;11.476;2023-05-09T08:31:01;7.15;;;4.85;;
75167;SDS011;63748;48.088;11.476;2023-05-09T08:33:27;7.88;;;5.30;;
75167;SDS011;63748;48.088;11.476;2023-05-09T08:35:53;8.00;;;5.28;;
75167;SDS011;63748;48.088;11.476;2023-05-09T08:38:20;7.38;;;5.45;;
75167;SDS011;63748;48.088;11.476;2023-05-09T08:40:46;6.68;;;4.75;;
75167;SDS011;63748;48.088;11.476;2023-05-09T08:43:12;8.20;;;5.03;;
75167;SDS011;63748;48.088;11.476;2023-05-09T08:48:06;6.35;;;4.53;;
75167;SDS011;63748;48.088;11.476;2023-05-09T08:50:33;6.45;;;4.30;;
75167;SDS011;63748;48.088;11.476;2023-05-09T08:52:59;9.23;;;4.65;;
75167;SDS011;63748;48.088;11.476;2023-05-09T08:55:25;6.88;;;4.57;;
75167;SDS011;63748;48.088;11.476;2023-05-09T08:57:52;9.73;;;5.18;;
75167;SDS011;63748;48.088;11.476;2023-05-09T09:00:18;5.97;;;4.20;;
75167;SDS011;63748;48.088;11.476;2023-05-09T09:02:45;6.85;;;4.60;;
75167;SDS011;63748;48.088;11.476;2023-05-09T09:05:12;6.95;;;4.93;;
75167;SDS011;63748;48.088;11.476;2023-05-09T09:07:38;6.22;;;4.82;;
75167;SDS011;63748;48.088;11.476;2023-05-09T09:10:05;6.50;;;4.88;;
75167;SDS011;63748;48.088;11.476;2023-05-09T09:12:32;7.47;;;4.55;;
75167;SDS011;63748;48.088;11.476;2023-05-09T09:15:00;5.63;;;3.97;;
75167;SDS011;63748;48.088;11.476;2023-05-09T09:17:28;6.07;;;3.83;;
75167;SDS011;63748;48.088;11.476;2023-05-09T09:19:57;4.63;;;3.75;;
75167;SDS011;63748;48.088;11.476;2023-05-09T09:22:27;4.85;;;3.33;;
75167;SDS011;63748;48.088;11.476;2023-05-09T09:25:00;9.40;;;4.40;;
75167;SDS011;63748;48.088;11.476;2023-05-09T09:27:27;5.50;;;4.00;;
75167;SDS011;63748;48.088;11.476;2023-05-09T09:29:53;5.20;;;3.35;;
75167;SDS011;63748;48.088;11.476;2023-05-09T09:32:19;4.25;;;3.13;;
75167;SDS011;63748;48.088;11.476;2023-05-09T09:34:49;5.43;;;3.90;;
75167;SDS011;63748;48.088;11.476;2023-05-09T09:37:22;5.75;;;3.20;;
75167;SDS011;63748;48.088;11.476;2023-05-09T09:39:54;5.72;;;3.20;;
75167;SDS011;63748;48.088;11.476;2023-05-09T09:42:21;4.25;;;3.00;;
75167;SDS011;63748;48.088;11.476;2023-05-09T09:45:03;6.30;;;3.00;;
75167;SDS011;63748;48.088;11.476;2023-05-09T09:52:25;5.47;;;3.47;;
75167;SDS011;63748;48.088;11.476;2023-05-09T09:54:54;3.80;;;2.92;;
75167;SDS011;63748;48.088;11.476;2023-05-09T09:57:36;3.35;;;2.60;;
75167;SDS011;63748;48.088;11.476;2023-05-09T10:00:04;3.50;;;2.55;;
75167;SDS011;63748;48.088;11.476;2023-05-09T10:02:30;3.75;;;2.72;;
75167;SDS011;63748;48.088;11.476;2023-05-09T10:05:04;3.10;;;2.30;;
75167;SDS011;63748;48.088;11.476;2023-05-09T10:07:32;4.47;;;2.83;;
75167;SDS011;63748;48.088;11.476;2023-05-09T10:09:58;5.38;;;3.03;;
75167;SDS011;63748;48.088;11.476;2023-05-09T10:12:24;3.88;;;2.90;;
75167;SDS011;63748;48.088;11.476;2023-05-09T10:14:51;4.63;;;3.78;;
75167;SDS011;63748;48.088;11.476;2023-05-09T10:17:17;3.90;;;2.75;;
75167;SDS011;63748;48.088;11.476;2023-05-09T10:19:45;3.25;;;2.83;;
75167;SDS011;63748;48.088;11.476;2023-05-09T10:22:13;5.13;;;3.92;;
75167;SDS011;63748;48.088;11.476;2023-05-09T10:27:24;6.47;;;3.20;;
75167;SDS011;63748;48.088;11.476;2023-05-09T10:30:02;4.78;;;2.95;;
75167;SDS011;63748;48.088;11.476;2023-05-09T10:32:36;4.55;;;3.10;;
75167;SDS011;63748;48.088;11.476;2023-05-09T10:35:04;5.57;;;3.17;;
75167;SDS011;63748;48.088;11.476;2023-05-09T10:37:31;4.47;;;3.05;;
75167;SDS011;63748;48.088;11.476;2023-05-09T10:39:59;4.22;;;2.97;;
75167;SDS011;63748;48.088;11.476;2023-05-09T10:44:52;5.05;;;3.90;;
75167;SDS011;63748;48.088;11.476;2023-05-09T10:47:19;4.75;;;3.10;;
75167;SDS011;63748;48.088;11.476;2023-05-09T10:49:45;4.90;;;3.05;;
75167;SDS011;63748;48.088;11.476;2023-05-09T10:52:12;3.88;;;2.70;;
75167;SDS011;63748;48.088;11.476;2023-05-09T10:54:39;3.63;;;2.97;;
75167;SDS011;63748;48.088;11.476;2023-05-09T10:57:07;4.97;;;2.78;;
75167;SDS011;63748;48.088;11.476;2023-05-09T10:59:35;4.65;;;3.17;;
75167;SDS011;63748;48.088;11.476;2023-05-09T11:02:02;4.82;;;3.40;;
75167;SDS011;63748;48.088;11.476;2023-05-09T11:04:29;4.20;;;3.33;;
75167;SDS011;63748;48.088;11.476;2023-05-09T11:06:56;4.63;;;3.38;;
75167;SDS011;63748;48.088;11.476;2023-05-09T11:09:32;4.32;;;3.30;;
75167;SDS011;63748;48.088;11.476;2023-05-09T11:17:04;4.65;;;3.22;;
75167;SDS011;63748;48.088;11.476;2023-05-09T11:22:19;5.68;;;4.35;;
75167;SDS011;63748;48.088;11.476;2023-05-09T11:24:49;5.15;;;4.20;;
75167;SDS011;63748;48.088;11.476;2023-05-09T11:27:19;5.80;;;4.00;;
75167;SDS011;63748;48.088;11.476;2023-05-09T11:29:50;6.10;;;4.18;;
75167;SDS011;63748;48.088;11.476;2023-05-09T11:32:17;6.75;;;4.47;;
75167;SDS011;63748;48.088;11.476;2023-05-09T11:34:44;6.82;;;4.22;;
75167;SDS011;63748;48.088;11.476;2023-05-09T11:37:11;5.40;;;3.90;;
75167;SDS011;63748;48.088;11.476;2023-05-09T11:39:56;5.50;;;3.83;;
75167;SDS011;63748;48.088;11.476;2023-05-09T11:42:23;6.88;;;5.40;;
75167;SDS011;63748;48.088;11.476;2023-05-09T11:44:50;6.38;;;5.03;;
75167;SDS011;63748;48.088;11.476;2023-05-09T11:47:16;6.55;;;5.10;;
75167;SDS011;63748;48.088;11.476;2023-05-09T11:49:43;6.45;;;5.63;;
75167;SDS011;63748;48.088;11.476;2023-05-09T11:52:09;9.30;;;7.13;;
75167;SDS011;63748;48.088;11.476;2023-05-09T11:54:38;8.52;;;5.72;;
75167;SDS011;63748;48.088;11.476;2023-05-09T11:57:05;6.57;;;4.90;;
75167;SDS011;63748;48.088;11.476;2023-05-09T11:59:34;7.15;;;4.68;;
75167;SDS011;63748;48.088;11.476;2023-05-09T12:02:03;6.78;;;5.13;;
75167;SDS011;63748;48.088;11.476;2023-05-09T12:04:30;6.97;;;4.60;;
75167;SDS011;63748;48.088;11.476;2023-05-09T12:06:57;7.68;;;5.18;;
75167;SDS011;63748;48.088;11.476;2023-05-09T12:09:24;9.57;;;6.20;;
75167;SDS011;63748;48.088;11.476;2023-05-09T12:11:51;6.78;;;5.28;;
75167;SDS011;63748;48.088;11.476;2023-05-09T12:14:27;8.02;;;6.03;;
75167;SDS011;63748;48.088;11.476;2023-05-09T12:16:53;10.48;;;5.80;;
75167;SDS011;63748;48.088;11.476;2023-05-09T12:19:20;10.00;;;7.47;;
75167;SDS011;63748;48.088;11.476;2023-05-09T12:21:47;13.25;;;6.97;;
75167;SDS011;63748;48.088;11.476;2023-05-09T12:24:18;8.98;;;6.70;;
75167;SDS011;63748;48.088;11.476;2023-05-09T12:26:44;8.88;;;6.28;;
75167;SDS011;63748;48.088;11.476;2023-05-09T12:29:11;7.82;;;6.15;;
75167;SDS011;63748;48.088;11.476;2023-05-09T12:31:37;9.82;;;7.45;;
75167;SDS011;63748;48.088;11.476;2023-05-09T12:34:03;8.50;;;6.13;;
75167;SDS011;63748;48.088;11.476;2023-05-09T12:36:33;11.45;;;6.28;;
75167;SDS011;63748;48.088;11.476;2023-05-09T12:38:59;7.85;;;5.80;;
75167;SDS011;63748;48.088;11.476;2023-05-09T12:41:25;11.10;;;7.68;;
75167;SDS011;63748;48.088;11.476;2023-05-09T12:43:53;8.23;;;6.05;;
75167;SDS011;63748;48.088;11.476;2023-05-09T12:46:19;8.52;;;6.45;;
75167;SDS011;63748;48.088;11.476;2023-05-09T12:48:46;8.48;;;6.15;;
75167;SDS011;63748;48.088;11.476;2023-05-09T12:51:16;8.00;;;5.97;;
75167;SDS011;63748;48.088;11.476;2023-05-09T12:53:44;7.40;;;4.88;;
75167;SDS011;63748;48.088;11.476;2023-05-09T12:56:11;8.40;;;5.82;;
75167;SDS011;63748;48.088;11.476;2023-05-09T12:58:38;10.15;;;6.47;;
75167;SDS011;63748;48.088;11.476;2023-05-09T13:01:05;12.52;;;6.22;;
75167;SDS011;63748;48.088;11.476;2023-05-09T13:03:31;10.10;;;6.97;;
75167;SDS011;63748;48.088;11.476;2023-05-09T13:06:04;9.82;;;6.85;;
75167;SDS011;63748;48.088;11.476;2023-05-09T13:08:31;12.63;;;7.95;;
75167;SDS011;63748;48.088;11.476;2023-05-09T13:10:57;9.65;;;7.30;;
75167;SDS011;63748;48.088;11.476;2023-05-09T13:13:24;10.07;;;6.55;;
75167;SDS011;63748;48.088;11.476;2023-05-09T13:15:51;11.10;;;7.47;;
75167;SDS011;63748;48.088;11.476;2023-05-09T13:18:17;12.55;;;8.57;;
75167;SDS011;63748;48.088;11.476;2023-05-09T13:20:43;12.38;;;7.82;;
75167;SDS011;63748;48.088;11.476;2023-05-09T13:23:09;12.35;;;9.18;;
75167;SDS011;63748;48.088;11.476;2023-05-09T13:25:35;14.10;;;8.65;;
75167;SDS011;63748;48.088;11.476;2023-05-09T13:28:01;8.95;;;6.43;;
75167;SDS011;63748;48.088;11.476;2023-05-09T13:30:28;9.50;;;6.78;;
75167;SDS011;63748;48.088;11.476;2023-05-09T13:32:54;10.63;;;6.55;;
75167;SDS011;63748;48.088;11.476;2023-05-09T13:35:20;9.43;;;6.32;;
75167;SDS011;63748;48.088;11.476;2023-05-09T13:37:46;11.00;;;7.82;;
75167;SDS011;63748;48.088;11.476;2023-05-09T13:40:12;10.57;;;7.13;;
75167;SDS011;63748;48.088;11.476;2023-05-09T13:42:38;10.63;;;7.38;;
75167;SDS011;63748;48.088;11.476;2023-05-09T13:45:05;8.80;;;6.70;;
75167;SDS011;63748;48.088;11.476;2023-05-09T13:47:31;11.43;;;6.78;;
75167;SDS011;63748;48.088;11.476;2023-05-09T13:49:57;9.82;;;6.55;;
75167;SDS011;63748;48.088;11.476;2023-05-09T13:52:23;13.48;;;6.70;;
75167;SDS011;63748;48.088;11.476;2023-05-09T13:54:49;10.77;;;6.85;;
75167;SDS011;63748;48.088;11.476;2023-05-09T13:57:15;11.20;;;7.03;;
75167;SDS011;63748;48.088;11.476;2023-05-09T13:59:41;8.55;;;5.72;;
75167;SDS011;63748;48.088;11.476;2023-05-09T14:02:07;7.95;;;5.68;;
75167;SDS011;63748;48.088;11.476;2023-05-09T14:04:35;8.15;;;5.50;;
75167;SDS011;63748;48.088;11.476;2023-05-09T14:07:01;9.25;;;6.75;;
75167;SDS011;63748;48.088;11.476;2023-05-09T14:11:54;9.90;;;6.90;;
75167;SDS011;63748;48.088;11.476;2023-05-09T14:14:21;9.90;;;5.95;;
75167;SDS011;63748;48.088;11.476;2023-05-09T14:16:48;9.50;;;7.10;;
75167;SDS011;63748;48.088;11.476;2023-05-09T14:19:15;7.45;;;5.55;;
75167;SDS011;63748;48.088;11.476;2023-05-09T14:21:44;7.53;;;6.25;;
75167;SDS011;63748;48.088;11.476;2023-05-09T14:24:11;8.00;;;5.78;;
75167;SDS011;63748;48.088;11.476;2023-05-09T14:26:38;5.93;;;4.90;;
75167;SDS011;63748;48.088;11.476;2023-05-09T14:29:04;8.55;;;5.47;;
75167;SDS011;63748;48.088;11.476;2023-05-09T14:31:30;9.07;;;5.63;;
75167;SDS011;63748;48.088;11.476;2023-05-09T14:33:56;7.75;;;5.93;;
75167;SDS011;63748;48.088;11.476;2023-05-09T14:36:24;8.10;;;5.50;;
75167;SDS011;63748;48.088;11.476;2023-05-09T14:38:51;7.85;;;5.68;;
75167;SDS011;63748;48.088;11.476;2023-05-09T14:41:17;14.65;;;6.07;;
75167;SDS011;63748;48.088;11.476;2023-05-09T14:43:43;7.47;;;5.88;;
75167;SDS011;63748;48.088;11.476;2023-05-09T14:46:09;8.55;;;5.82;;
75167;SDS011;63748;48.088;11.476;2023-05-09T14:48:35;10.43;;;7.47;;
75167;SDS011;63748;48.088;11.476;2023-05-09T14:51:01;8.43;;;5.72;;
75167;SDS011;63748;48.088;11.476;2023-05-09T14:53:27;7.38;;;5.18;;
75167;SDS011;63748;48.088;11.476;2023-05-09T14:55:54;8.93;;;5.65;;
75167;SDS011;63748;48.088;11.476;2023-05-09T14:58:20;8.95;;;6.70;;
75167;SDS011;63748;48.088;11.476;2023-05-09T15:00:47;12.77;;;6.55;;
75167;SDS011;63748;48.088;11.476;2023-05-09T15:03:13;9.57;;;5.50;;
75167;SDS011;63748;48.088;11.476;2023-05-09T15:05:39;7.82;;;5.93;;